sensor_id;sensor_type;location;lat;lon;timestamp;pressure;altitude;pressure_sealevel;temperature;humidity
4972;BME280;2501;51.214;6.768;2024-03-08T00:00:53;101515.47;;;3.65;100.00
4972;BME280;2501;51.214;6.768;2024-03-08T00:03:21;101516.38;;;3.65;100.00
4972;BME280;2501;51.214;6.768;2024-03-08T00:05:50;101520.88;;;3.69;100.00
4972;BME280;2501;51.214;6.768;2024-03-08T00:08:18;101512.63;;;3.59;100.00
4972;BME280;2501;51.214;6.768;2024-03-08T00:10:47;101505.91;;;3.64;100.00
4972;BME280;2501;51.214;6.768;2024-03-08T00:13:15;101501.00;;;3.50;100.00
4972;BME280;2501;51.214;6.768;2024-03-08T00:15:44;101500.31;;;3.55;100.00
4972;BME280;2501;51.214;6.768;2024-03-08T00:18:15;101494.25;;;3.54;100.00
4972;BME280;2501;51.214;6.768;2024-03-08T00:20:43;101496.47;;;3.46;100.00
4972;BME280;2501;51.214;6.768;2024-03-08T00:23:12;101497.44;;;3.48;100.00
4972;BME280;2501;51.214;6.768;2024-03-08T00:25:41;101499.25;;;3.32;100.00
4972;BME280;2501;51.214;6.768;2024-03-08T00:28:09;101493.41;;;3.36;100.00
4972;BME280;2501;51.214;6.768;2024-03-08T00:30:40;101480.50;;;3.37;100.00
4972;BME280;2501;51.214;6.768;2024-03-08T00:33:06;101486.50;;;3.36;100.00
4972;BME280;2501;51.214;6.768;2024-03-08T00:35:37;101502.59;;;3.29;100.00
4972;BME280;2501;51.214;6.768;2024-03-08T00:38:05;101491.69;;;3.36;100.00
4972;BME280;2501;51.214;6.768;2024-03-08T00:40:34;101490.00;;;3.37;100.00
4972;BME280;2501;51.214;6.768;2024-03-08T00:43:02;101489.69;;;3.31;100.00
4972;BME280;2501;51.214;6.768;2024-03-08T00:45:31;101490.31;;;3.25;100.00
4972;BME280;2501;51.214;6.768;2024-03-08T00:48:00;101472.44;;;3.31;100.00
4972;BME280;2501;51.214;6.768;2024-03-08T00:50:28;101481.91;;;3.31;100.00
4972;BME280;2501;51.214;6.768;2024-03-08T00:52:59;101477.00;;;3.18;100.00
4972;BME280;2501;51.214;6.768;2024-03-08T00:55:28;101477.72;;;3.15;100.00
4972;BME280;2501;51.214;6.768;2024-03-08T00:57:57;101475.31;;;3.37;100.00
4972;BME280;2501;51.214;6.768;2024-03-08T01:00:25;101462.25;;;3.17;100.00
4972;BME280;2501;51.214;6.768;2024-03-08T01:02:54;101468.88;;;3.10;100.00
4972;BME280;2501;51.214;6.768;2024-03-08T01:05:23;101457.47;;;3.06;100.00
4972;BME280;2501;51.214;6.768;2024-03-08T01:07:52;101458.50;;;3.29;100.00
4972;BME280;2501;51.214;6.768;2024-03-08T01:10:23;101456.53;;;3.24;100.00
4972;BME280;2501;51.214;6.768;2024-03-08T01:12:52;101455.66;;;3.23;100.00
4972;BME280;2501;51.214;6.768;2024-03-08T01:15:22;101451.59;;;3.28;100.00
4972;BME280;2501;51.214;6.768;2024-03-08T01:17:50;101444.75;;;3.12;100.00
4972;BME280;2501;51.214;6.768;2024-03-08T01:20:19;101442.06;;;3.09;100.00
4972;BME280;2501;51.214;6.768;2024-03-08T01:22:48;101436.19;;;3.13;100.00
4972;BME280;2501;51.214;6.768;2024-03-08T01:25:16;101438.03;;;3.16;100.00
4972;BME280;2501;51.214;6.768;2024-03-08T01:27:47;101437.13;;;3.15;100.00
4972;BME280;2501;51.214;6.768;2024-03-08T01:30:16;101429.03;;;3.08;100.00
4972;BME280;2501;51.214;6.768;2024-03-08T01:32:45;101429.91;;;3.08;100.00
4972;BME280;2501;51.214;6.768;2024-03-08T01:35:14;101420.00;;;3.00;100.00
4972;BME280;2501;51.214;6.768;2024-03-08T01:37:43;101424.66;;;3.07;100.00
4972;BME280;2501;51.214;6.768;2024-03-08T01:40:12;101427.25;;;3.07;100.00
4972;BME280;2501;51.214;6.768;2024-03-08T01:42:40;101424.00;;;3.11;100.00
4972;BME280;2501;51.214;6.768;2024-03-08T01:45:12;101421.78;;;3.01;100.00
4972;BME280;2501;51.214;6.768;2024-03-08T01:47:41;101415.59;;;3.17;100.00
4972;BME280;2501;51.214;6.768;2024-03-08T01:50:10;101425.03;;;2.97;100.00
4972;BME280;2501;51.214;6.768;2024-03-08T01:52:38;101419.50;;;2.89;100.00
4972;BME280;2501;51.214;6.768;2024-03-08T01:55:07;101412.69;;;2.91;100.00
4972;BME280;2501;51.214;6.768;2024-03-08T01:57:36;101412.63;;;2.90;100.00
4972;BME280;2501;51.214;6.768;2024-03-08T02:00:06;101409.41;;;2.77;100.00
4972;BME280;2501;51.214;6.768;2024-03-08T02:02:40;101410.94;;;2.72;100.00
4972;BME280;2501;51.214;6.768;2024-03-08T02:05:10;101398.25;;;2.78;100.00
4972;BME280;2501;51.214;6.768;2024-03-08T02:07:40;101403.31;;;2.75;100.00
4972;BME280;2501;51.214;6.768;2024-03-08T02:10:09;101399.44;;;2.67;100.00
4972;BME280;2501;51.214;6.768;2024-03-08T02:12:38;101387.78;;;2.75;100.00
4972;BME280;2501;51.214;6.768;2024-03-08T02:15:07;101391.28;;;2.77;100.00
4972;BME280;2501;51.214;6.768;2024-03-08T02:17:38;101387.88;;;2.78;100.00
4972;BME280;2501;51.214;6.768;2024-03-08T02:20:08;101385.59;;;2.85;100.00
4972;BME280;2501;51.214;6.768;2024-03-08T02:22:41;101383.31;;;2.73;100.00
4972;BME280;2501;51.214;6.768;2024-03-08T02:25:10;101374.22;;;2.63;100.00
4972;BME280;2501;51.214;6.768;2024-03-08T02:27:39;101375.56;;;2.55;100.00
4972;BME280;2501;51.214;6.768;2024-03-08T02:30:09;101370.72;;;2.63;100.00
4972;BME280;2501;51.214;6.768;2024-03-08T02:32:38;101364.66;;;2.80;100.00
4972;BME280;2501;51.214;6.768;2024-03-08T02:35:06;101369.34;;;2.69;100.00
4972;BME280;2501;51.214;6.768;2024-03-08T02:37:35;101365.84;;;2.69;100.00
4972;BME280;2501;51.214;6.768;2024-03-08T02:40:07;101366.59;;;2.66;100.00
4972;BME280;2501;51.214;6.768;2024-03-08T02:42:37;101364.00;;;2.66;100.00
4972;BME280;2501;51.214;6.768;2024-03-08T02:45:07;101360.31;;;2.61;100.00
4972;BME280;2501;51.214;6.768;2024-03-08T02:47:35;101353.88;;;2.71;100.00
4972;BME280;2501;51.214;6.768;2024-03-08T02:50:05;101357.63;;;2.77;100.00
4972;BME280;2501;51.214;6.768;2024-03-08T02:52:34;101346.47;;;2.61;100.00
4972;BME280;2501;51.214;6.768;2024-03-08T02:55:02;101346.28;;;2.56;100.00
4972;BME280;2501;51.214;6.768;2024-03-08T02:57:34;101343.88;;;2.61;100.00
4972;BME280;2501;51.214;6.768;2024-03-08T03:00:03;101342.25;;;2.63;100.00
4972;BME280;2501;51.214;6.768;2024-03-08T03:02:34;101343.00;;;2.60;100.00
4972;BME280;2501;51.214;6.768;2024-03-08T03:05:03;101342.78;;;2.56;100.00
4972;BME280;2501;51.214;6.768;2024-03-08T03:07:33;101335.47;;;2.47;100.00
4972;BME280;2501;51.214;6.768;2024-03-08T03:10:01;101333.84;;;2.49;100.00
4972;BME280;2501;51.214;6.768;2024-03-08T03:12:33;101337.88;;;2.62;100.00
4972;BME280;2501;51.214;6.768;2024-03-08T03:15:03;101329.03;;;2.57;100.00
4972;BME280;2501;51.214;6.768;2024-03-08T03:17:32;101328.16;;;2.56;100.00
4972;BME280;2501;51.214;6.768;2024-03-08T03:20:00;101325.19;;;2.49;100.00
4972;BME280;2501;51.214;6.768;2024-03-08T03:22:34;101328.72;;;2.51;100.00
4972;BME280;2501;51.214;6.768;2024-03-08T03:25:04;101326.81;;;2.47;100.00
4972;BME280;2501;51.214;6.768;2024-03-08T03:27:35;101333.19;;;2.53;100.00
4972;BME280;2501;51.214;6.768;2024-03-08T03:30:06;101326.38;;;2.55;100.00
4972;BME280;2501;51.214;6.768;2024-03-08T03:32:48;101315.13;;;2.55;100.00
4972;BME280;2501;51.214;6.768;2024-03-08T03:35:16;101322.59;;;2.49;100.00
4972;BME280;2501;51.214;6.768;2024-03-08T03:37:46;101319.56;;;2.57;100.00
4972;BME280;2501;51.214;6.768;2024-03-08T03:40:26;101312.88;;;2.62;100.00
4972;BME280;2501;51.214;6.768;2024-03-08T03:42:57;101316.25;;;2.98;100.00
4972;BME280;2501;51.214;6.768;2024-03-08T03:45:26;101320.88;;;2.67;100.00
4972;BME280;2501;51.214;6.768;2024-03-08T03:47:55;101319.50;;;2.56;100.00
4972;BME280;2501;51.214;6.768;2024-03-08T03:50:26;101312.47;;;2.53;100.00
4972;BME280;2501;51.214;6.768;2024-03-08T03:52:54;101309.78;;;2.52;100.00
4972;BME280;2501;51.214;6.768;2024-03-08T03:55:22;101310.03;;;2.56;100.00
4972;BME280;2501;51.214;6.768;2024-03-08T03:57:51;101316.16;;;2.58;100.00
4972;BME280;2501;51.214;6.768;2024-03-08T04:00:22;101309.03;;;2.72;100.00
4972;BME280;2501;51.214;6.768;2024-03-08T04:02:52;101302.75;;;2.67;100.00
4972;BME280;2501;51.214;6.768;2024-03-08T04:05:24;101305.69;;;2.74;100.00
4972;BME280;2501;51.214;6.768;2024-03-08T04:07:53;101298.78;;;2.56;100.00
4972;BME280;2501;51.214;6.768;2024-03-08T04:10:22;101302.25;;;2.56;100.00
4972;BME280;2501;51.214;6.768;2024-03-08T04:12:50;101298.13;;;2.42;100.00
4972;BME280;2501;51.214;6.768;2024-03-08T04:15:22;101296.78;;;2.32;100.00
4972;BME280;2501;51.214;6.768;2024-03-08T04:17:50;101302.75;;;2.49;100.00
4972;BME280;2501;51.214;6.768;2024-03-08T04:20:19;101302.53;;;2.44;100.00
4972;BME280;2501;51.214;6.768;2024-03-08T04:22:47;101295.53;;;2.42;100.00
4972;BME280;2501;51.214;6.768;2024-03-08T04:25:16;101298.88;;;2.39;100.00
4972;BME280;2501;51.214;6.768;2024-03-08T04:27:45;101299.59;;;2.55;100.00
4972;BME280;2501;51.214;6.768;2024-03-08T04:30:15;101291.16;;;2.59;100.00
4972;BME280;2501;51.214;6.768;2024-03-08T04:32:46;101285.94;;;2.39;100.00
4972;BME280;2501;51.214;6.768;2024-03-08T04:35:14;101294.84;;;2.46;100.00
4972;BME280;2501;51.214;6.768;2024-03-08T04:37:43;101286.41;;;2.50;100.00
4972;BME280;2501;51.214;6.768;2024-03-08T04:40:11;101290.41;;;2.43;100.00
4972;BME280;2501;51.214;6.768;2024-03-08T04:42:40;101285.53;;;2.50;100.00
4972;BME280;2501;51.214;6.768;2024-03-08T04:45:10;101275.72;;;2.62;100.00
4972;BME280;2501;51.214;6.768;2024-03-08T04:47:39;101280.50;;;2.53;100.00
4972;BME280;2501;51.214;6.768;2024-03-08T04:50:10;101282.88;;;2.48;100.00
4972;BME280;2501;51.214;6.768;2024-03-08T04:52:39;101279.75;;;2.55;100.00
4972;BME280;2501;51.214;6.768;2024-03-08T04:55:08;101277.03;;;2.52;100.00
4972;BME280;2501;51.214;6.768;2024-03-08T04:57:36;101268.50;;;2.55;100.00
4972;BME280;2501;51.214;6.768;2024-03-08T05:00:06;101273.84;;;2.58;100.00
4972;BME280;2501;51.214;6.768;2024-03-08T05:02:36;101266.59;;;2.51;100.00
4972;BME280;2501;51.214;6.768;2024-03-08T05:05:05;101260.38;;;2.47;100.00
4972;BME280;2501;51.214;6.768;2024-03-08T05:07:37;101263.03;;;2.49;100.00
4972;BME280;2501;51.214;6.768;2024-03-08T05:10:06;101268.00;;;2.44;100.00
4972;BME280;2501;51.214;6.768;2024-03-08T05:12:35;101265.69;;;2.50;100.00
4972;BME280;2501;51.214;6.768;2024-03-08T05:15:05;101263.03;;;2.49;100.00
4972;BME280;2501;51.214;6.768;2024-03-08T05:17:33;101262.34;;;2.33;100.00
4972;BME280;2501;51.214;6.768;2024-03-08T05:20:02;101262.03;;;2.27;100.00
4972;BME280;2501;51.214;6.768;2024-03-08T05:22:33;101256.44;;;2.18;100.00
4972;BME280;2501;51.214;6.768;2024-03-08T05:25:05;101250.50;;;2.38;100.00
4972;BME280;2501;51.214;6.768;2024-03-08T05:27:34;101249.38;;;2.33;100.00
4972;BME280;2501;51.214;6.768;2024-03-08T05:30:09;101254.72;;;2.36;100.00
4972;BME280;2501;51.214;6.768;2024-03-08T05:32:52;101242.91;;;2.43;100.00
4972;BME280;2501;51.214;6.768;2024-03-08T05:35:29;101246.22;;;2.39;100.00
4972;BME280;2501;51.214;6.768;2024-03-08T05:37:58;101245.41;;;2.40;100.00
4972;BME280;2501;51.214;6.768;2024-03-08T05:40:29;101244.78;;;2.45;100.00
4972;BME280;2501;51.214;6.768;2024-03-08T05:42:58;101238.63;;;2.43;100.00
4972;BME280;2501;51.214;6.768;2024-03-08T05:45:27;101233.09;;;2.54;100.00
4972;BME280;2501;51.214;6.768;2024-03-08T05:47:55;101232.47;;;2.59;100.00
4972;BME280;2501;51.214;6.768;2024-03-08T05:50:24;101228.38;;;2.64;100.00
4972;BME280;2501;51.214;6.768;2024-03-08T05:52:52;101224.72;;;2.59;100.00
4972;BME280;2501;51.214;6.768;2024-03-08T05:55:21;101234.13;;;2.57;100.00
4972;BME280;2501;51.214;6.768;2024-03-08T05:57:52;101223.81;;;2.59;100.00
4972;BME280;2501;51.214;6.768;2024-03-08T06:00:22;101222.78;;;2.55;100.00
4972;BME280;2501;51.214;6.768;2024-03-08T06:02:51;101220.41;;;2.60;100.00
4972;BME280;2501;51.214;6.768;2024-03-08T06:05:21;101224.72;;;2.59;100.00
4972;BME280;2501;51.214;6.768;2024-03-08T06:07:50;101222.22;;;2.62;100.00
4972;BME280;2501;51.214;6.768;2024-03-08T06:10:19;101228.31;;;2.63;100.00
4972;BME280;2501;51.214;6.768;2024-03-08T06:12:47;101230.88;;;2.63;100.00
4972;BME280;2501;51.214;6.768;2024-03-08T06:15:19;101225.78;;;2.64;100.00
4972;BME280;2501;51.214;6.768;2024-03-08T06:17:48;101217.50;;;2.71;100.00
4972;BME280;2501;51.214;6.768;2024-03-08T06:20:18;101222.44;;;2.67;100.00
4972;BME280;2501;51.214;6.768;2024-03-08T06:22:51;101222.88;;;2.76;100.00
4972;BME280;2501;51.214;6.768;2024-03-08T06:25:20;101227.28;;;2.78;100.00
4972;BME280;2501;51.214;6.768;2024-03-08T06:27:48;101222.16;;;2.99;100.00
4972;BME280;2501;51.214;6.768;2024-03-08T06:30:21;101215.97;;;2.96;100.00
4972;BME280;2501;51.214;6.768;2024-03-08T06:32:49;101219.44;;;2.96;100.00
4972;BME280;2501;51.214;6.768;2024-03-08T06:35:18;101220.97;;;2.91;100.00
4972;BME280;2501;51.214;6.768;2024-03-08T06:37:46;101212.16;;;2.88;100.00
4972;BME280;2501;51.214;6.768;2024-03-08T06:40:14;101215.22;;;2.98;100.00
4972;BME280;2501;51.214;6.768;2024-03-08T06:42:43;101208.31;;;2.99;100.00
4972;BME280;2501;51.214;6.768;2024-03-08T06:45:12;101199.94;;;3.04;100.00
4972;BME280;2501;51.214;6.768;2024-03-08T06:47:47;101211.63;;;3.15;100.00
4972;BME280;2501;51.214;6.768;2024-03-08T06:50:16;101212.06;;;3.25;100.00
4972;BME280;2501;51.214;6.768;2024-03-08T06:52:45;101204.88;;;3.19;100.00
4972;BME280;2501;51.214;6.768;2024-03-08T06:55:19;101204.34;;;3.26;100.00
4972;BME280;2501;51.214;6.768;2024-03-08T06:57:47;101206.16;;;3.49;100.00
4972;BME280;2501;51.214;6.768;2024-03-08T07:00:16;101204.59;;;3.32;100.00
4972;BME280;2501;51.214;6.768;2024-03-08T07:02:49;101206.91;;;3.47;100.00
4972;BME280;2501;51.214;6.768;2024-03-08T07:05:19;101206.31;;;3.53;100.00
4972;BME280;2501;51.214;6.768;2024-03-08T07:07:48;101201.88;;;3.71;100.00
4972;BME280;2501;51.214;6.768;2024-03-08T07:10:17;101203.72;;;3.73;100.00
4972;BME280;2501;51.214;6.768;2024-03-08T07:12:45;101200.09;;;3.70;100.00
4972;BME280;2501;51.214;6.768;2024-03-08T07:15:14;101211.22;;;3.67;100.00
4972;BME280;2501;51.214;6.768;2024-03-08T07:17:44;101196.47;;;3.66;100.00
4972;BME280;2501;51.214;6.768;2024-03-08T07:20:16;101201.59;;;3.85;100.00
4972;BME280;2501;51.214;6.768;2024-03-08T07:22:44;101189.50;;;3.86;100.00
4972;BME280;2501;51.214;6.768;2024-03-08T07:25:13;101198.44;;;3.93;100.00
4972;BME280;2501;51.214;6.768;2024-03-08T07:27:49;101189.75;;;3.92;100.00
4972;BME280;2501;51.214;6.768;2024-03-08T07:30:18;101192.88;;;4.06;100.00
4972;BME280;2501;51.214;6.768;2024-03-08T07:32:59;101184.28;;;4.29;100.00
4972;BME280;2501;51.214;6.768;2024-03-08T07:35:30;101188.91;;;4.38;100.00
4972;BME280;2501;51.214;6.768;2024-03-08T07:37:59;101179.97;;;4.30;100.00
4972;BME280;2501;51.214;6.768;2024-03-08T07:40:28;101177.63;;;4.13;100.00
4972;BME280;2501;51.214;6.768;2024-03-08T07:42:56;101176.13;;;4.20;100.00
4972;BME280;2501;51.214;6.768;2024-03-08T07:45:25;101172.00;;;4.25;100.00
4972;BME280;2501;51.214;6.768;2024-03-08T07:47:54;101175.38;;;4.23;100.00
4972;BME280;2501;51.214;6.768;2024-03-08T07:50:22;101167.50;;;4.43;100.00
4972;BME280;2501;51.214;6.768;2024-03-08T07:52:53;101175.78;;;4.57;100.00
4972;BME280;2501;51.214;6.768;2024-03-08T07:55:22;101160.25;;;4.59;100.00
4972;BME280;2501;51.214;6.768;2024-03-08T07:57:52;101154.56;;;4.69;100.00
4972;BME280;2501;51.214;6.768;2024-03-08T08:00:20;101153.19;;;4.54;100.00
4972;BME280;2501;51.214;6.768;2024-03-08T08:02:49;101148.16;;;4.59;100.00
4972;BME280;2501;51.214;6.768;2024-03-08T08:05:18;101150.16;;;4.66;100.00
4972;BME280;2501;51.214;6.768;2024-03-08T08:07:46;101138.78;;;4.63;100.00
4972;BME280;2501;51.214;6.768;2024-03-08T08:10:18;101131.28;;;4.72;100.00
4972;BME280;2501;51.214;6.768;2024-03-08T08:12:47;101131.69;;;4.82;100.00
4972;BME280;2501;51.214;6.768;2024-03-08T08:15:15;101123.16;;;4.86;100.00
4972;BME280;2501;51.214;6.768;2024-03-08T08:17:44;101123.16;;;4.86;100.00
4972;BME280;2501;51.214;6.768;2024-03-08T08:20:13;101121.09;;;5.02;100.00
4972;BME280;2501;51.214;6.768;2024-03-08T08:22:43;101113.88;;;5.20;100.00
4972;BME280;2501;51.214;6.768;2024-03-08T08:25:13;101116.75;;;5.28;100.00
4972;BME280;2501;51.214;6.768;2024-03-08T08:27:48;101103.03;;;5.32;100.00
4972;BME280;2501;51.214;6.768;2024-03-08T08:30:16;101098.72;;;5.32;100.00
4972;BME280;2501;51.214;6.768;2024-03-08T08:32:46;101092.22;;;5.46;100.00
4972;BME280;2501;51.214;6.768;2024-03-08T08:35:15;101097.13;;;5.64;99.79
4972;BME280;2501;51.214;6.768;2024-03-08T08:37:45;101090.34;;;5.69;98.47
4972;BME280;2501;51.214;6.768;2024-03-08T08:40:14;101090.28;;;5.94;99.33
4972;BME280;2501;51.214;6.768;2024-03-08T08:42:43;101079.03;;;5.96;97.30
4972;BME280;2501;51.214;6.768;2024-03-08T08:45:14;101084.03;;;5.89;96.81
4972;BME280;2501;51.214;6.768;2024-03-08T08:47:43;101076.66;;;6.03;95.97
4972;BME280;2501;51.214;6.768;2024-03-08T08:50:12;101063.91;;;6.12;94.97
4972;BME280;2501;51.214;6.768;2024-03-08T08:52:42;101064.16;;;6.21;93.55
4972;BME280;2501;51.214;6.768;2024-03-08T08:55:11;101058.59;;;6.41;92.29
4972;BME280;2501;51.214;6.768;2024-03-08T08:57:41;101060.56;;;6.48;91.73
4972;BME280;2501;51.214;6.768;2024-03-08T09:00:10;101058.25;;;6.60;90.36
4972;BME280;2501;51.214;6.768;2024-03-08T09:02:43;101059.09;;;6.59;89.53
4972;BME280;2501;51.214;6.768;2024-03-08T09:05:11;101058.03;;;6.51;89.81
4972;BME280;2501;51.214;6.768;2024-03-08T09:07:42;101046.69;;;6.49;89.10
4972;BME280;2501;51.214;6.768;2024-03-08T09:10:11;101057.03;;;6.46;88.06
4972;BME280;2501;51.214;6.768;2024-03-08T09:12:40;101043.41;;;6.56;90.18
4972;BME280;2501;51.214;6.768;2024-03-08T09:15:08;101044.47;;;6.64;89.65
4972;BME280;2501;51.214;6.768;2024-03-08T09:17:37;101043.19;;;6.81;85.27
4972;BME280;2501;51.214;6.768;2024-03-08T09:20:11;101043.25;;;6.83;84.95
4972;BME280;2501;51.214;6.768;2024-03-08T09:22:40;101038.75;;;7.12;84.21
4972;BME280;2501;51.214;6.768;2024-03-08T09:25:09;101034.63;;;6.85;83.58
4972;BME280;2501;51.214;6.768;2024-03-08T09:27:37;101034.13;;;7.00;82.63
4972;BME280;2501;51.214;6.768;2024-03-08T09:30:07;101034.00;;;7.31;81.32
4972;BME280;2501;51.214;6.768;2024-03-08T09:32:38;101035.03;;;7.38;86.04
4972;BME280;2501;51.214;6.768;2024-03-08T09:35:11;101029.94;;;7.43;80.07
4972;BME280;2501;51.214;6.768;2024-03-08T09:37:40;101025.16;;;7.64;82.33
4972;BME280;2501;51.214;6.768;2024-03-08T09:40:09;101026.75;;;7.56;78.80
4972;BME280;2501;51.214;6.768;2024-03-08T09:42:40;101017.97;;;7.52;77.12
4972;BME280;2501;51.214;6.768;2024-03-08T09:45:11;101016.88;;;7.43;77.44
4972;BME280;2501;51.214;6.768;2024-03-08T09:47:41;101004.34;;;7.67;76.58
4972;BME280;2501;51.214;6.768;2024-03-08T09:50:13;100993.50;;;7.88;75.60
4972;BME280;2501;51.214;6.768;2024-03-08T09:52:44;100987.50;;;7.92;73.24
4972;BME280;2501;51.214;6.768;2024-03-08T09:55:15;100992.34;;;7.74;73.82
4972;BME280;2501;51.214;6.768;2024-03-08T09:57:48;100991.44;;;7.34;74.84
4972;BME280;2501;51.214;6.768;2024-03-08T10:00:29;100981.63;;;7.61;78.23
4972;BME280;2501;51.214;6.768;2024-03-08T10:03:01;100997.41;;;7.67;75.37
4972;BME280;2501;51.214;6.768;2024-03-08T10:05:33;100984.00;;;7.51;74.48
4972;BME280;2501;51.214;6.768;2024-03-08T10:08:02;100972.94;;;7.62;74.08
4972;BME280;2501;51.214;6.768;2024-03-08T10:10:33;100967.28;;;7.83;73.14
4972;BME280;2501;51.214;6.768;2024-03-08T10:13:05;100963.38;;;8.05;71.72
4972;BME280;2501;51.214;6.768;2024-03-08T10:15:34;100961.78;;;8.13;72.11
4972;BME280;2501;51.214;6.768;2024-03-08T10:18:04;100952.44;;;8.26;70.10
4972;BME280;2501;51.214;6.768;2024-03-08T10:20:36;100958.59;;;8.28;68.87
4972;BME280;2501;51.214;6.768;2024-03-08T10:23:05;100954.59;;;8.01;69.36
4972;BME280;2501;51.214;6.768;2024-03-08T10:25:35;100948.00;;;7.77;68.69
4972;BME280;2501;51.214;6.768;2024-03-08T10:28:04;100948.88;;;7.76;69.48
4972;BME280;2501;51.214;6.768;2024-03-08T10:30:33;100935.94;;;7.83;69.97
4972;BME280;2501;51.214;6.768;2024-03-08T10:33:03;100936.56;;;8.14;70.48
4972;BME280;2501;51.214;6.768;2024-03-08T10:35:32;100931.44;;;8.21;70.68
4972;BME280;2501;51.214;6.768;2024-03-08T10:38:05;100920.66;;;8.50;66.87
4972;BME280;2501;51.214;6.768;2024-03-08T10:40:35;100921.03;;;8.72;65.53
4972;BME280;2501;51.214;6.768;2024-03-08T10:43:15;100915.34;;;8.44;64.39
4972;BME280;2501;51.214;6.768;2024-03-08T10:45:50;100893.13;;;8.22;63.49
4972;BME280;2501;51.214;6.768;2024-03-08T10:48:28;100911.75;;;8.38;64.23
4972;BME280;2501;51.214;6.768;2024-03-08T10:50:59;100908.47;;;8.50;66.36
4972;BME280;2501;51.214;6.768;2024-03-08T10:53:30;100899.41;;;8.83;63.26
4972;BME280;2501;51.214;6.768;2024-03-08T10:55:59;100887.06;;;8.74;61.59
4972;BME280;2501;51.214;6.768;2024-03-08T10:58:28;100891.81;;;8.99;62.46
4972;BME280;2501;51.214;6.768;2024-03-08T11:00:58;100880.41;;;8.94;61.81
4972;BME280;2501;51.214;6.768;2024-03-08T11:03:44;100876.34;;;9.15;58.37
4972;BME280;2501;51.214;6.768;2024-03-08T11:06:16;100881.72;;;9.27;57.70
4972;BME280;2501;51.214;6.768;2024-03-08T11:08:50;100874.81;;;9.32;57.49
4972;BME280;2501;51.214;6.768;2024-03-08T11:11:25;100879.19;;;9.31;57.59
4972;BME280;2501;51.214;6.768;2024-03-08T11:13:56;100869.69;;;9.41;58.54
4972;BME280;2501;51.214;6.768;2024-03-08T11:16:39;100864.13;;;9.15;58.29
4972;BME280;2501;51.214;6.768;2024-03-08T11:19:25;100859.41;;;9.58;59.67
4972;BME280;2501;51.214;6.768;2024-03-08T11:22:01;100851.31;;;9.35;57.38
4972;BME280;2501;51.214;6.768;2024-03-08T11:24:41;100840.72;;;9.27;57.13
4972;BME280;2501;51.214;6.768;2024-03-08T11:27:10;100849.41;;;9.23;56.46
4972;BME280;2501;51.214;6.768;2024-03-08T11:29:39;100848.22;;;9.71;55.73
4972;BME280;2501;51.214;6.768;2024-03-08T11:32:09;100837.81;;;9.77;55.26
4972;BME280;2501;51.214;6.768;2024-03-08T11:34:39;100840.38;;;9.72;54.15
4972;BME280;2501;51.214;6.768;2024-03-08T11:37:11;100829.78;;;9.62;54.44
4972;BME280;2501;51.214;6.768;2024-03-08T11:39:46;100830.78;;;9.73;53.61
4972;BME280;2501;51.214;6.768;2024-03-08T11:42:15;100824.00;;;9.93;52.85
4972;BME280;2501;51.214;6.768;2024-03-08T11:44:44;100823.03;;;9.84;52.98
4972;BME280;2501;51.214;6.768;2024-03-08T11:47:13;100815.78;;;9.58;53.20
4972;BME280;2501;51.214;6.768;2024-03-08T11:49:42;100809.91;;;9.81;53.44
4972;BME280;2501;51.214;6.768;2024-03-08T11:52:14;100804.00;;;10.00;53.37
4972;BME280;2501;51.214;6.768;2024-03-08T11:54:49;100809.09;;;9.89;53.37
4972;BME280;2501;51.214;6.768;2024-03-08T11:57:20;100803.53;;;10.48;54.72
4972;BME280;2501;51.214;6.768;2024-03-08T11:59:50;100793.88;;;10.45;52.47
4972;BME280;2501;51.214;6.768;2024-03-08T12:02:19;100793.91;;;10.47;52.63
4972;BME280;2501;51.214;6.768;2024-03-08T12:04:55;100785.06;;;10.31;52.12
4972;BME280;2501;51.214;6.768;2024-03-08T12:07:25;100791.91;;;10.17;52.66
4972;BME280;2501;51.214;6.768;2024-03-08T12:10:18;100778.06;;;10.32;52.67
4972;BME280;2501;51.214;6.768;2024-03-08T12:12:48;100773.09;;;10.76;51.97
4972;BME280;2501;51.214;6.768;2024-03-08T12:15:17;100772.09;;;10.51;51.45
4972;BME280;2501;51.214;6.768;2024-03-08T12:17:48;100764.94;;;10.30;51.12
4972;BME280;2501;51.214;6.768;2024-03-08T12:20:19;100762.97;;;10.08;52.13
4972;BME280;2501;51.214;6.768;2024-03-08T12:22:51;100766.44;;;9.99;52.06
4972;BME280;2501;51.214;6.768;2024-03-08T12:25:26;100753.19;;;9.87;52.13
4972;BME280;2501;51.214;6.768;2024-03-08T12:27:57;100751.63;;;10.06;52.42
4972;BME280;2501;51.214;6.768;2024-03-08T12:30:45;100740.53;;;10.40;51.43
4972;BME280;2501;51.214;6.768;2024-03-08T12:33:16;100738.09;;;10.71;51.03
4972;BME280;2501;51.214;6.768;2024-03-08T12:35:50;100735.50;;;10.77;50.04
4972;BME280;2501;51.214;6.768;2024-03-08T12:38:21;100731.19;;;10.90;51.50
4972;BME280;2501;51.214;6.768;2024-03-08T12:41:01;100729.44;;;10.89;49.99
4972;BME280;2501;51.214;6.768;2024-03-08T12:43:30;100725.88;;;10.79;50.30
4972;BME280;2501;51.214;6.768;2024-03-08T12:45:59;100725.88;;;10.79;50.28
4972;BME280;2501;51.214;6.768;2024-03-08T12:48:34;100722.50;;;11.04;50.66
4972;BME280;2501;51.214;6.768;2024-03-08T12:51:05;100720.69;;;10.88;50.11
4972;BME280;2501;51.214;6.768;2024-03-08T12:53:34;100712.88;;;11.00;50.02
4972;BME280;2501;51.214;6.768;2024-03-08T12:56:06;100704.13;;;11.12;50.17
4972;BME280;2501;51.214;6.768;2024-03-08T12:58:36;100703.25;;;11.11;49.74
4972;BME280;2501;51.214;6.768;2024-03-08T13:01:06;100705.06;;;11.32;49.63
4972;BME280;2501;51.214;6.768;2024-03-08T13:03:35;100684.91;;;11.05;50.37
4972;BME280;2501;51.214;6.768;2024-03-08T13:06:04;100684.88;;;10.99;49.63
4972;BME280;2501;51.214;6.768;2024-03-08T13:08:34;100684.84;;;10.96;50.14
4972;BME280;2501;51.214;6.768;2024-03-08T13:11:07;100691.03;;;11.12;49.09
4972;BME280;2501;51.214;6.768;2024-03-08T13:13:37;100686.66;;;11.12;49.58
4972;BME280;2501;51.214;6.768;2024-03-08T13:16:06;100679.66;;;11.13;48.97
4972;BME280;2501;51.214;6.768;2024-03-08T13:18:37;100676.13;;;11.00;48.76
4972;BME280;2501;51.214;6.768;2024-03-08T13:21:07;100672.56;;;10.81;49.26
4972;BME280;2501;51.214;6.768;2024-03-08T13:23:37;100671.56;;;10.52;50.38
4972;BME280;2501;51.214;6.768;2024-03-08T13:26:13;100666.41;;;10.69;50.13
4972;BME280;2501;51.214;6.768;2024-03-08T13:28:42;100662.97;;;10.85;49.83